Hamedan, Iran
Current Conditions -  °F | °C
As of 3:00 AM on Saturday 20 Dec 2014 (Local Time) from OICC Reporting Station
Broken Clouds Broken Clouds  
Wind Chill: 40°   Ceiling: 8000
Heat Index: 45°   Visibility: 6mi
Dew Point: 34°   Wind: 9mph
Humidity: 66%   Direction: 360°N
Pressure: 30.21"   Gusts: NA
Location:  34.8°N, 48.52°E
Report Text: OICC 200000Z 36008KT 9000 FEW030CB SCT035 BKN080 07/01 Q1023 A3023
Loading
Personal Weather Stations






























Interactive Weather Map New forecast layout! Learn more

10-Day Weather Forecast

Advertisements
Track Severe Weather on mobile